Casper, WY

5:46 AM MDT on September 23, 2014 (GMT -0600)
Natrona County International | Change Station
CLOSE
Current Station
Airport
Location: Casper,
Elevation: 5289 ft
Nearby Weather Stations

Elev 5289 ft 42.90 °N, 106.47 °W | Updated 53 minutes ago

Clear
Clear
53 °F
Feels Like 53 °F
N
8
Wind Variable Wind from West

Today
High -- | Low -- °F
--% Chance of Precip.
Yesterday
High -- | Low -- °F
Precip. -- in
6:53 AM 7:00 PM
Waning Crescent, 1% visible
Pressure 29.93 in
Visibility 10.0 miles
Clouds Clear
Dew Point 40 °F
Humidity 61%
Rainfall 0.00 in
Snow Depth 0 in , 0 in , 0 in
UV 0 out of 12
Pollen 5.70 out of 12
Air Quality Not available.
Flu Activity Not available.
METAR KCPR 231053Z 26007KT 10SM CLR 12/04 A3008 RMK AO2 SLP135 T01170044

More Conditions Fewer Conditions

Pressure 29.93 in
Visibility 10.0 miles
Clouds Clear
Dew Point 40 °F
Humidity 61%
Rainfall 0.00 in
Snow Depth 0 in , 0 in , 0 in
UV 0 out of 12
Pollen 5.70 out of 12
Air Quality Not available.
Flu Activity Not available.
METAR KCPR 231053Z 26007KT 10SM CLR 12/04 A3008 RMK AO2 SLP135 T01170044

More Conditions Fewer Conditions

10-Day Weather Forecast

Almanac

Astronomy

Sep. 23, 2014 Rise Set
Actual Time 6:53 AM MDT 7:00 PM MDT
Civil Twilight 6:25 AM MDT 7:28 PM MDT
Nautical Twilight 5:52 AM MDT 8:01 PM MDT
Astronomical Twilight 5:18 AM MDT 8:35 PM MDT
Moon 6:20 AM MDT 6:40 PM MDT
Length of Visible Light 13h 03m
Length of Day
12h 06m
Tomorrow will be 2m 53s shorter.
Waning Crescent, 1% of the Moon is Illuminated
Today
Waning Crescent
Sep 24
New
Oct 1
First Quarter
Oct 8
Full
Oct 15
Last Quarter

Today's Extremes

State Highs State Lows

Community

WunderPhotos

Upload Photos

1,755,644 photos uploaded!

WunderBlogs® & News

By Dr. Jeff Masters
Director of Meteorology, Weather Underground
By Kari Strenfel
Meteorologist, Weather Underground
By Christopher C. Burt
Weather Historian, Weather Underground
September 23, 2014
September 23, 2014
September 23, 2014

Nearby

Snow Depth

Station Depth Elevation
Casper Mountain 0 in 7850 ft
North French Creek 0 in 10130 ft
Crow Creek 0 in 8330 ft
Granite Creek 0 in 6770 ft
Little Snake River 0 in 8915 ft

Earthquake Activity

City Distance Mag. Time & Date
No recent earthquake activity has been reported nearby.
Minimum magnitude displayed is 2.5.

Coastal Water Temperatures

Place Temperature
No Stations Reporting

Nearby Weather Stations